createdAt,value
2018-11-02T00:02:18.534Z,9.58
2018-11-02T00:04:50.494Z,9.40
2018-11-02T00:07:22.503Z,9.60
2018-11-02T00:09:54.498Z,9.43
2018-11-02T00:12:26.760Z,10.48
2018-11-02T00:14:58.645Z,11.55
2018-11-02T00:17:30.654Z,12.25
2018-11-02T00:20:02.687Z,12.50
2018-11-02T00:22:34.678Z,10.82
2018-11-02T00:25:06.682Z,10.60
2018-11-02T00:27:38.656Z,10.45
2018-11-02T00:30:10.649Z,12.45
2018-11-02T00:32:42.696Z,10.13
2018-11-02T00:35:14.662Z,13.32
2018-11-02T00:37:46.644Z,9.68
2018-11-02T00:40:18.613Z,10.68
2018-11-02T00:42:50.584Z,10.15
2018-11-02T00:45:22.626Z,11.12
2018-11-02T00:47:54.579Z,11.00
2018-11-02T00:50:26.610Z,11.60
2018-11-02T00:52:58.603Z,12.35
2018-11-02T00:55:30.625Z,10.50
2018-11-02T00:58:02.635Z,11.08
2018-11-02T01:00:34.606Z,11.80
2018-11-02T01:03:06.579Z,10.40
2018-11-02T01:05:39.656Z,10.72
2018-11-02T01:08:11.654Z,11.15
2018-11-02T01:10:43.641Z,10.63
2018-11-02T01:13:15.630Z,11.00
2018-11-02T01:15:47.615Z,11.95
2018-11-02T01:18:19.628Z,12.85
2018-11-02T01:20:51.625Z,14.03
2018-11-02T01:23:23.574Z,11.53
2018-11-02T01:25:55.539Z,11.20
2018-11-02T01:28:27.533Z,11.90
2018-11-02T01:30:59.487Z,11.35
2018-11-02T01:33:36.339Z,10.58
2018-11-02T01:36:09.391Z,11.68
2018-11-02T01:38:41.401Z,11.20
2018-11-02T01:41:13.360Z,12.75
2018-11-02T01:43:45.367Z,10.40
2018-11-02T01:46:17.331Z,9.15
2018-11-02T01:48:49.320Z,10.43
2018-11-02T01:51:21.283Z,9.95
2018-11-02T01:53:53.262Z,9.35
2018-11-02T01:56:25.219Z,10.20
2018-11-02T01:58:57.382Z,10.23
2018-11-02T02:01:29.394Z,12.50
2018-11-02T02:04:01.407Z,10.08
2018-11-02T02:06:33.412Z,10.82
2018-11-02T02:09:07.739Z,8.78
2018-11-02T02:11:39.751Z,8.75
2018-11-02T02:14:11.708Z,9.15
2018-11-02T02:16:43.679Z,9.50
2018-11-02T02:19:15.675Z,11.93
2018-11-02T02:21:47.638Z,10.63
2018-11-02T02:24:19.697Z,10.45
2018-11-02T02:26:51.705Z,11.97
2018-11-02T02:29:23.663Z,10.58
2018-11-02T02:31:55.661Z,11.60
2018-11-02T02:34:27.619Z,11.15
2018-11-02T02:36:59.582Z,10.70
2018-11-02T02:39:31.610Z,13.80
2018-11-02T02:42:03.739Z,11.75
2018-11-02T02:44:35.790Z,11.85
2018-11-02T02:47:07.753Z,15.38
2018-11-02T02:49:39.738Z,10.13
2018-11-02T02:52:11.776Z,11.12
2018-11-02T02:54:43.794Z,11.88
2018-11-02T02:57:15.774Z,11.00
2018-11-02T02:59:47.786Z,13.93
2018-11-02T03:02:19.739Z,9.83
2018-11-02T03:04:51.734Z,9.78
2018-11-02T03:07:23.775Z,9.60
2018-11-02T03:09:55.766Z,10.88
2018-11-02T03:12:27.766Z,9.33
2018-11-02T03:14:59.748Z,10.80
2018-11-02T03:17:31.730Z,10.50
2018-11-02T03:20:05.475Z,9.10
2018-11-02T03:22:37.733Z,9.25
2018-11-02T03:25:10.714Z,9.15
2018-11-02T03:27:42.751Z,8.95
2018-11-02T03:30:14.727Z,9.78
2018-11-02T03:32:46.731Z,10.38
2018-11-02T03:35:18.753Z,10.93
2018-11-02T03:37:50.771Z,9.68
2018-11-02T03:40:22.782Z,10.10
2018-11-02T03:42:54.802Z,12.35
2018-11-02T03:45:26.779Z,11.18
2018-11-02T03:47:58.758Z,11.05
2018-11-02T03:50:30.722Z,9.95
2018-11-02T03:53:02.874Z,11.43
2018-11-02T03:55:34.882Z,9.03
2018-11-02T03:58:06.891Z,11.00
2018-11-02T04:00:40.551Z,11.33
2018-11-02T04:03:12.523Z,13.05
2018-11-02T04:05:44.516Z,11.83
2018-11-02T04:08:16.490Z,11.30
2018-11-02T04:10:48.498Z,11.43
2018-11-02T04:13:20.463Z,10.80
2018-11-02T04:15:52.526Z,12.25
2018-11-02T04:18:24.514Z,11.65
2018-11-02T04:20:56.576Z,13.45
2018-11-02T04:23:28.551Z,13.75
2018-11-02T04:26:00.573Z,14.13
2018-11-02T04:28:32.566Z,11.83
2018-11-02T04:31:04.681Z,13.45
2018-11-02T04:33:36.603Z,11.28
2018-11-02T04:36:08.611Z,10.70
2018-11-02T04:38:40.651Z,10.55
2018-11-02T04:41:12.647Z,10.32
2018-11-02T04:43:44.630Z,12.28
2018-11-02T04:46:16.615Z,11.00
2018-11-02T04:48:48.616Z,11.75
2018-11-02T04:51:20.655Z,11.83
2018-11-02T04:53:54.078Z,10.28
2018-11-02T04:56:26.095Z,12.73
2018-11-02T04:58:58.118Z,11.75
2018-11-02T05:01:30.139Z,11.63
2018-11-02T05:04:02.115Z,10.88
2018-11-02T05:06:34.141Z,10.65
2018-11-02T05:09:07.076Z,13.48
2018-11-02T05:11:39.166Z,10.35
2018-11-02T05:14:11.153Z,11.08
2018-11-02T05:16:43.196Z,12.85
2018-11-02T05:19:15.287Z,11.60
2018-11-02T05:21:47.319Z,11.15
2018-11-02T05:24:19.324Z,10.30
2018-11-02T05:26:51.358Z,10.88
2018-11-02T05:29:23.330Z,12.25
2018-11-02T05:31:55.367Z,11.97
2018-11-02T05:34:27.376Z,12.37
2018-11-02T05:36:59.379Z,12.13
2018-11-02T05:39:31.432Z,13.40
2018-11-02T05:42:03.431Z,13.43
2018-11-02T05:44:35.446Z,12.18
2018-11-02T05:47:07.486Z,12.55
2018-11-02T05:49:39.564Z,13.10
2018-11-02T05:52:11.578Z,13.10
2018-11-02T05:54:43.601Z,13.68
2018-11-02T05:57:15.638Z,12.23
2018-11-02T05:59:47.600Z,13.18
2018-11-02T06:02:19.662Z,12.55
2018-11-02T06:04:51.678Z,14.75
2018-11-02T06:07:23.753Z,13.08
2018-11-02T06:09:55.727Z,14.60
2018-11-02T06:12:27.739Z,12.73
2018-11-02T06:14:59.732Z,13.78
2018-11-02T06:17:31.762Z,12.50
2018-11-02T06:20:04.869Z,14.05
2018-11-02T06:22:37.282Z,15.55
2018-11-02T06:25:09.326Z,18.80
2018-11-02T06:27:42.200Z,17.40
2018-11-02T06:30:14.154Z,13.25
2018-11-02T06:32:46.268Z,14.33
2018-11-02T06:35:18.205Z,12.58
2018-11-02T06:37:50.273Z,13.68
2018-11-02T06:40:22.255Z,19.00
2018-11-02T06:42:54.303Z,13.45
2018-11-02T06:45:26.220Z,13.68
2018-11-02T06:47:58.220Z,12.95
2018-11-02T06:50:30.190Z,13.30
2018-11-02T06:53:02.191Z,12.30
2018-11-02T06:55:34.252Z,12.37
2018-11-02T06:58:06.275Z,17.12
2018-11-02T07:00:38.486Z,12.50
2018-11-02T07:03:10.275Z,13.53
2018-11-02T07:05:42.339Z,12.68
2018-11-02T07:08:14.396Z,13.72
2018-11-02T07:10:46.431Z,15.50
2018-11-02T07:13:18.573Z,12.73
2018-11-02T07:15:50.614Z,13.70
2018-11-02T07:18:22.622Z,14.33
2018-11-02T07:20:54.654Z,14.83
2018-11-02T07:23:26.673Z,15.40
2018-11-02T07:25:58.637Z,13.48
2018-11-02T07:28:30.631Z,13.20
2018-11-02T07:31:02.656Z,14.78
2018-11-02T07:33:34.662Z,13.22
2018-11-02T07:36:06.675Z,13.08
2018-11-02T07:38:38.791Z,15.00
2018-11-02T07:41:10.778Z,13.88
2018-11-02T07:43:42.807Z,11.83
2018-11-02T07:46:14.767Z,11.65
2018-11-02T07:48:46.821Z,13.32
2018-11-02T07:51:18.904Z,12.98
2018-11-02T07:53:50.851Z,11.80
2018-11-02T07:56:22.803Z,11.90
2018-11-02T07:58:54.872Z,20.85
2018-11-02T08:01:26.886Z,14.33
2018-11-02T08:03:59.459Z,19.77
2018-11-02T08:06:30.879Z,14.80
2018-11-02T08:09:03.913Z,14.20
2018-11-02T08:11:36.123Z,13.35
2018-11-02T08:14:07.959Z,15.50
2018-11-02T08:16:40.136Z,27.50
2018-11-02T08:19:12.151Z,16.57
2018-11-02T08:21:44.222Z,14.18
2018-11-02T08:24:16.301Z,14.95
2018-11-02T08:26:48.259Z,15.48
2018-11-02T08:29:20.259Z,14.65
2018-11-02T08:31:52.354Z,14.75
2018-11-02T08:34:24.340Z,19.12
2018-11-02T08:36:56.526Z,13.93
2018-11-02T08:39:28.549Z,16.32
2018-11-02T08:42:01.068Z,15.68
2018-11-02T08:44:33.306Z,18.35
2018-11-02T08:47:05.395Z,15.65
2018-11-02T08:49:44.495Z,16.45
2018-11-02T08:52:16.599Z,13.78
2018-11-02T08:54:48.847Z,14.15
2018-11-02T08:57:20.871Z,13.93
2018-11-02T08:59:52.955Z,13.85
2018-11-02T09:02:24.967Z,13.93
2018-11-02T09:04:57.054Z,13.35
2018-11-02T09:07:29.016Z,13.28
2018-11-02T09:10:01.050Z,14.10
2018-11-02T09:12:33.062Z,13.50
2018-11-02T09:15:05.120Z,13.62
2018-11-02T09:17:37.128Z,13.88
2018-11-02T09:20:09.133Z,14.73
2018-11-02T09:22:41.109Z,13.00
2018-11-02T09:25:13.110Z,13.43
2018-11-02T09:27:45.126Z,12.37
2018-11-02T09:30:17.088Z,13.17
2018-11-02T09:32:49.061Z,13.00
2018-11-02T09:35:21.063Z,12.47
2018-11-02T09:37:53.061Z,11.37
2018-11-02T09:40:25.260Z,12.40
2018-11-02T09:42:57.191Z,14.60
2018-11-02T09:45:29.232Z,12.80
2018-11-02T09:48:01.239Z,12.10
2018-11-02T09:50:33.255Z,12.70
2018-11-02T09:53:05.255Z,12.30
2018-11-02T09:55:37.227Z,13.83
2018-11-02T09:58:09.235Z,12.33
2018-11-02T10:00:41.222Z,12.83
2018-11-02T10:03:13.198Z,12.47
2018-11-02T10:05:45.203Z,11.27
2018-11-02T10:08:17.214Z,11.00
2018-11-02T10:10:49.215Z,13.80
2018-11-02T10:13:21.207Z,13.10
2018-11-02T10:15:53.203Z,11.77
2018-11-02T10:18:25.199Z,12.17
2018-11-02T10:20:57.187Z,12.43
2018-11-02T10:23:29.215Z,13.40
2018-11-02T10:26:01.372Z,16.10
2018-11-02T10:28:33.491Z,13.23
2018-11-02T10:31:05.706Z,11.80
2018-11-02T10:33:37.735Z,12.73
2018-11-02T10:36:09.800Z,14.10
2018-11-02T10:38:41.767Z,13.23
2018-11-02T10:41:17.947Z,11.67
2018-11-02T10:43:50.011Z,12.30
2018-11-02T10:46:22.027Z,11.17
2018-11-02T10:48:54.049Z,11.40
2018-11-02T10:51:26.067Z,11.93
2018-11-02T10:53:58.083Z,11.10
2018-11-02T10:56:30.158Z,12.17
2018-11-02T10:59:04.185Z,12.00
2018-11-02T11:01:42.042Z,13.53
2018-11-02T11:04:14.015Z,12.93
2018-11-02T11:06:46.232Z,13.70
2018-11-02T11:09:18.266Z,12.03
2018-11-02T11:11:50.492Z,12.40
2018-11-02T11:14:22.299Z,12.03
2018-11-02T11:16:54.310Z,12.43
2018-11-02T11:19:26.338Z,13.00
2018-11-02T11:21:58.303Z,15.63
2018-11-02T11:24:30.311Z,12.63
2018-11-02T11:27:02.319Z,11.60
2018-11-02T11:29:34.469Z,11.80
2018-11-02T11:32:06.479Z,11.83
2018-11-02T11:34:38.564Z,12.27
2018-11-02T11:37:10.540Z,12.20
2018-11-02T11:39:42.612Z,11.23
2018-11-02T11:42:14.607Z,12.30
2018-11-02T11:44:46.611Z,10.87
2018-11-02T11:47:18.632Z,10.43
2018-11-02T11:49:50.634Z,11.40
2018-11-02T11:52:22.654Z,10.73
2018-11-02T11:54:54.658Z,10.90
2018-11-02T11:57:26.711Z,10.87
2018-11-02T11:59:58.753Z,10.53
2018-11-02T12:02:30.874Z,10.70
2018-11-02T12:05:02.806Z,11.47
2018-11-02T12:07:34.797Z,15.90
2018-11-02T12:10:09.316Z,10.30
2018-11-02T12:12:41.334Z,13.67
2018-11-02T12:15:15.548Z,9.13
2018-11-02T12:17:47.994Z,8.60
2018-11-02T12:20:22.410Z,8.90
2018-11-02T12:22:55.908Z,9.33
2018-11-02T12:25:27.975Z,11.00
2018-11-02T12:28:00.039Z,9.07
2018-11-02T12:30:32.025Z,9.57
2018-11-02T12:33:04.346Z,9.10
2018-11-02T12:35:36.374Z,8.50
2018-11-02T12:38:08.377Z,8.23
2018-11-02T12:40:40.393Z,9.23
2018-11-02T12:43:12.452Z,8.80
2018-11-02T12:45:44.470Z,7.93
2018-11-02T12:48:16.594Z,6.67
2018-11-02T12:50:48.563Z,6.23
2018-11-02T12:53:20.571Z,4.93
2018-11-02T12:55:52.604Z,5.43
2018-11-02T12:58:24.668Z,8.00
2018-11-02T13:00:56.722Z,4.67
2018-11-02T13:03:28.747Z,7.93
2018-11-02T13:06:00.759Z,6.83
2018-11-02T13:08:32.789Z,4.13
2018-11-02T13:11:04.790Z,4.70
2018-11-02T13:13:36.806Z,3.93
2018-11-02T13:16:08.972Z,4.40
2018-11-02T13:18:40.841Z,3.50
2018-11-02T13:21:12.885Z,5.13
2018-11-02T13:23:44.886Z,5.00
2018-11-02T13:26:16.929Z,4.40
2018-11-02T13:28:48.867Z,4.87
2018-11-02T13:31:21.031Z,12.33
2018-11-02T13:33:52.887Z,5.70
2018-11-02T13:36:25.560Z,5.87
2018-11-02T13:38:57.511Z,14.57
2018-11-02T13:41:29.515Z,6.13
2018-11-02T13:44:01.535Z,10.40
2018-11-02T13:46:33.536Z,6.30
2018-11-02T13:49:06.234Z,15.17
2018-11-02T13:51:38.246Z,6.97
2018-11-02T13:54:11.746Z,8.07
2018-11-02T13:56:43.724Z,5.47
2018-11-02T13:59:15.790Z,6.63
2018-11-02T14:01:47.847Z,11.40
2018-11-02T14:04:19.854Z,7.33
2018-11-02T14:06:51.864Z,6.30
2018-11-02T14:09:23.868Z,6.60
2018-11-02T14:11:55.899Z,6.83
2018-11-02T14:14:27.961Z,7.00
2018-11-02T14:17:00.500Z,10.83
2018-11-02T14:19:32.469Z,6.40
2018-11-02T14:22:04.558Z,6.90
2018-11-02T14:24:36.542Z,5.83
2018-11-02T14:27:08.519Z,5.50
2018-11-02T14:29:40.575Z,8.40
2018-11-02T14:32:12.599Z,7.93
2018-11-02T14:34:44.591Z,5.33
2018-11-02T14:37:16.658Z,6.20
2018-11-02T14:39:48.771Z,5.40
2018-11-02T14:42:20.818Z,5.83
2018-11-02T14:44:52.826Z,7.40
2018-11-02T14:47:24.844Z,9.07
2018-11-02T14:49:56.874Z,6.23
2018-11-02T14:52:29.078Z,6.43
2018-11-02T14:55:01.114Z,8.40
2018-11-02T14:57:33.146Z,8.43
2018-11-02T15:00:06.533Z,5.70
2018-11-02T15:02:39.100Z,6.50
2018-11-02T15:05:12.380Z,6.30
2018-11-02T15:07:44.373Z,6.50
2018-11-02T15:10:16.462Z,6.80
2018-11-02T15:12:48.458Z,5.37
2018-11-02T15:15:20.430Z,5.70
2018-11-02T15:17:52.386Z,5.73
2018-11-02T15:20:24.403Z,5.27
2018-11-02T15:22:56.391Z,4.63
2018-11-02T15:25:28.362Z,5.70
2018-11-02T15:28:00.372Z,4.53
2018-11-02T15:30:32.376Z,5.10
2018-11-02T15:33:05.003Z,4.37
2018-11-02T15:35:37.030Z,4.53
2018-11-02T15:38:09.163Z,6.60
2018-11-02T15:40:41.259Z,5.53
2018-11-02T15:43:13.755Z,4.43
2018-11-02T15:45:45.739Z,5.13
2018-11-02T15:48:17.794Z,3.93
2018-11-02T15:50:49.825Z,5.50
2018-11-02T15:53:21.892Z,6.70
2018-11-02T15:55:53.847Z,5.20
2018-11-02T15:58:25.830Z,4.00
2018-11-02T16:00:57.815Z,3.90
2018-11-02T16:03:29.819Z,4.00
2018-11-02T16:06:01.807Z,4.30
2018-11-02T16:08:33.843Z,4.53
2018-11-02T16:11:05.857Z,5.80
2018-11-02T16:13:37.925Z,4.00
2018-11-02T16:16:09.924Z,5.10
2018-11-02T16:18:42.369Z,4.80
2018-11-02T16:21:14.394Z,3.63
2018-11-02T16:23:46.415Z,4.80
2018-11-02T16:26:18.420Z,5.17
2018-11-02T16:28:50.485Z,3.90
2018-11-02T16:31:22.501Z,5.83
2018-11-02T16:33:54.546Z,3.97
2018-11-02T16:36:26.569Z,5.53
2018-11-02T16:38:58.730Z,6.40
2018-11-02T16:41:30.723Z,4.70
2018-11-02T16:44:02.754Z,4.70
2018-11-02T16:46:34.735Z,4.20
2018-11-02T16:49:06.754Z,4.80
2018-11-02T16:51:38.758Z,4.00
2018-11-02T16:54:11.772Z,4.40
2018-11-02T16:56:43.831Z,6.80
2018-11-02T16:59:15.822Z,6.67
2018-11-02T17:01:47.827Z,5.30
2018-11-02T17:04:19.819Z,6.53
2018-11-02T17:06:51.934Z,6.90
2018-11-02T17:09:23.933Z,5.43
2018-11-02T17:11:55.935Z,8.53
2018-11-02T17:14:27.975Z,8.57
2018-11-02T17:17:00.214Z,7.60
2018-11-02T17:19:32.406Z,7.20
2018-11-02T17:22:04.431Z,7.20
2018-11-02T17:24:36.444Z,8.77
2018-11-02T17:27:08.474Z,6.30
2018-11-02T17:29:40.549Z,8.00
2018-11-02T17:32:12.586Z,6.90
2018-11-02T17:34:44.575Z,5.73
2018-11-02T17:37:16.639Z,7.07
2018-11-02T17:39:49.191Z,7.13
2018-11-02T17:42:21.235Z,6.83
2018-11-02T17:44:53.297Z,5.43
2018-11-02T17:47:25.418Z,6.27
2018-11-02T17:49:57.491Z,9.60
2018-11-02T17:52:29.433Z,6.03
2018-11-02T17:55:01.477Z,5.90
2018-11-02T17:57:33.576Z,5.77
2018-11-02T18:00:07.254Z,4.67
2018-11-02T18:02:39.359Z,6.33
2018-11-02T18:05:11.587Z,4.40
2018-11-02T18:07:43.579Z,4.50
2018-11-02T18:10:15.595Z,4.83
2018-11-02T18:12:47.628Z,4.50
2018-11-02T18:15:19.679Z,4.67
2018-11-02T18:17:51.719Z,5.13
2018-11-02T18:20:23.744Z,5.10
2018-11-02T18:22:55.765Z,4.83
2018-11-02T18:25:27.750Z,4.50
2018-11-02T18:27:59.758Z,4.93
2018-11-02T18:30:31.732Z,4.80
2018-11-02T18:33:03.923Z,4.30
2018-11-02T18:35:36.105Z,5.50
2018-11-02T18:38:08.013Z,6.57
2018-11-02T18:40:40.038Z,5.37
2018-11-02T18:43:12.190Z,4.87
2018-11-02T18:45:44.209Z,5.90
2018-11-02T18:48:16.279Z,5.83
2018-11-02T18:50:48.670Z,5.40
2018-11-02T18:53:20.706Z,5.00
2018-11-02T18:55:52.691Z,4.90
2018-11-02T18:58:24.679Z,4.77
2018-11-02T19:00:56.710Z,5.43
2018-11-02T19:03:28.768Z,5.10
2018-11-02T19:06:00.763Z,4.97
2018-11-02T19:08:32.784Z,5.37
2018-11-02T19:11:04.770Z,4.80
2018-11-02T19:13:36.771Z,5.53
2018-11-02T19:16:08.780Z,6.50
2018-11-02T19:18:41.455Z,5.10
2018-11-02T19:21:13.797Z,5.07
2018-11-02T19:23:45.788Z,5.00
2018-11-02T19:26:17.755Z,4.93
2018-11-02T19:28:49.782Z,5.20
2018-11-02T19:31:21.790Z,4.70
2018-11-02T19:33:53.766Z,5.50
2018-11-02T19:36:25.779Z,4.53
2018-11-02T19:38:57.784Z,5.20
2018-11-02T19:41:30.162Z,4.80
2018-11-02T19:44:02.203Z,6.60
2018-11-02T19:46:34.195Z,4.70
2018-11-02T19:49:06.269Z,4.90
2018-11-02T19:51:38.194Z,6.73
2018-11-02T19:54:10.199Z,4.80
2018-11-02T19:56:42.173Z,5.67
2018-11-02T19:59:14.158Z,5.37
2018-11-02T20:01:46.152Z,5.07
2018-11-02T20:04:18.191Z,6.70
2018-11-02T20:06:50.211Z,7.10
2018-11-02T20:09:22.290Z,6.57
2018-11-02T20:11:54.211Z,5.07
2018-11-02T20:14:26.467Z,6.10
2018-11-02T20:16:58.450Z,5.23
2018-11-02T20:19:30.542Z,6.10
2018-11-02T20:22:02.567Z,5.93
2018-11-02T20:24:34.571Z,5.30
2018-11-02T20:27:06.694Z,6.90
2018-11-02T20:29:38.755Z,6.23
2018-11-02T20:32:10.782Z,6.00
2018-11-02T20:34:43.552Z,5.40
2018-11-02T20:37:15.535Z,6.83
2018-11-02T20:39:47.551Z,5.67
2018-11-02T20:42:19.551Z,6.97
2018-11-02T20:44:51.636Z,5.93
2018-11-02T20:47:23.735Z,6.17
2018-11-02T20:49:55.751Z,7.63
2018-11-02T20:52:28.375Z,6.53
2018-11-02T20:55:00.379Z,5.47
2018-11-02T20:57:33.133Z,6.15
2018-11-02T21:00:07.242Z,6.12
2018-11-02T21:02:39.847Z,6.13
2018-11-02T21:05:12.969Z,5.80
2018-11-02T21:07:45.692Z,6.25
2018-11-02T21:10:18.707Z,6.57
2018-11-02T21:12:50.798Z,5.97
2018-11-02T21:15:23.962Z,6.95
2018-11-02T21:17:55.986Z,6.10
2018-11-02T21:20:28.088Z,6.12
2018-11-02T21:23:00.145Z,7.00
2018-11-02T21:25:32.139Z,9.30
2018-11-02T21:28:04.820Z,6.00
2018-11-02T21:30:36.792Z,5.90
2018-11-02T21:33:08.767Z,6.62
2018-11-02T21:35:40.760Z,6.40
2018-11-02T21:38:12.871Z,6.55
2018-11-02T21:40:44.814Z,6.60
2018-11-02T21:43:16.831Z,5.70
2018-11-02T21:45:48.842Z,7.45
2018-11-02T21:48:20.870Z,6.60
2018-11-02T21:50:52.905Z,6.35
2018-11-02T21:53:24.906Z,5.70
2018-11-02T21:55:56.878Z,5.22
2018-11-02T21:58:29.699Z,6.05
2018-11-02T22:01:01.791Z,6.37
2018-11-02T22:03:34.312Z,6.13
2018-11-02T22:06:06.731Z,6.00
2018-11-02T22:08:38.814Z,7.00
2018-11-02T22:11:11.052Z,6.28
2018-11-02T22:13:43.127Z,6.17
2018-11-02T22:16:15.439Z,5.40
2018-11-02T22:18:47.717Z,11.50
2018-11-02T22:21:19.899Z,5.83
2018-11-02T22:23:52.414Z,5.93
2018-11-02T22:26:24.650Z,6.47
2018-11-02T22:28:56.729Z,6.65
2018-11-02T22:31:28.723Z,5.60
2018-11-02T22:34:00.868Z,5.60
2018-11-02T22:36:32.906Z,6.08
2018-11-02T22:39:06.926Z,7.03
2018-11-02T22:41:38.931Z,5.60
2018-11-02T22:44:10.934Z,5.57
2018-11-02T22:46:42.963Z,5.70
2018-11-02T22:49:14.981Z,5.50
2018-11-02T22:51:47.006Z,5.75
2018-11-02T22:54:19.006Z,6.60
2018-11-02T22:56:51.007Z,6.03
2018-11-02T22:59:23.007Z,5.97
2018-11-02T23:01:55.019Z,6.78
2018-11-02T23:04:27.169Z,6.65
2018-11-02T23:06:59.224Z,6.00
2018-11-02T23:09:31.270Z,6.22
2018-11-02T23:12:03.311Z,5.60
2018-11-02T23:14:35.381Z,5.23
2018-11-02T23:17:07.438Z,5.87
2018-11-02T23:19:39.395Z,5.47
2018-11-02T23:22:11.410Z,5.70
2018-11-02T23:24:43.419Z,5.07
2018-11-02T23:27:15.459Z,4.87
2018-11-02T23:29:47.708Z,5.40
2018-11-02T23:32:19.859Z,6.50
2018-11-02T23:34:51.819Z,5.23
2018-11-02T23:37:23.831Z,5.40
2018-11-02T23:39:55.815Z,5.37
2018-11-02T23:42:27.939Z,6.60
2018-11-02T23:45:00.241Z,7.05
2018-11-02T23:47:32.083Z,5.72
2018-11-02T23:50:05.998Z,7.40
2018-11-02T23:52:37.975Z,5.05
2018-11-02T23:55:09.968Z,5.23
2018-11-02T23:57:41.958Z,5.67
